sensor_id;sensor_type;location;lat;lon;timestamp;pressure;altitude;pressure_sealevel;temperature;humidity
42111;BME280;27766;52.174;5.456;2023-02-18T00:01:11;102040.13;;;9.61;100.00
42111;BME280;27766;52.174;5.456;2023-02-18T00:03:38;102036.38;;;9.54;100.00
42111;BME280;27766;52.174;5.456;2023-02-18T00:06:15;102044.09;;;9.53;100.00
42111;BME280;27766;52.174;5.456;2023-02-18T00:08:43;102039.16;;;9.59;100.00
42111;BME280;27766;52.174;5.456;2023-02-18T00:11:11;102039.16;;;9.59;100.00
42111;BME280;27766;52.174;5.456;2023-02-18T00:13:38;102038.25;;;9.58;100.00
42111;BME280;27766;52.174;5.456;2023-02-18T00:16:11;102030.66;;;9.61;100.00
42111;BME280;27766;52.174;5.456;2023-02-18T00:18:39;102035.88;;;9.63;100.00
42111;BME280;27766;52.174;5.456;2023-02-18T00:21:07;102038.59;;;9.66;100.00
42111;BME280;27766;52.174;5.456;2023-02-18T00:23:34;102043.91;;;9.69;100.00
42111;BME280;27766;52.174;5.456;2023-02-18T00:26:11;102034.63;;;9.74;100.00
42111;BME280;27766;52.174;5.456;2023-02-18T00:28:39;102029.63;;;9.79;100.00
42111;BME280;27766;52.174;5.456;2023-02-18T00:31:09;102035.63;;;9.78;100.00
42111;BME280;27766;52.174;5.456;2023-02-18T00:33:36;102028.72;;;9.78;100.00
42111;BME280;27766;52.174;5.456;2023-02-18T00:36:05;102019.88;;;9.72;100.00
42111;BME280;27766;52.174;5.456;2023-02-18T00:38:34;102027.53;;;9.70;100.00
42111;BME280;27766;52.174;5.456;2023-02-18T00:41:01;102023.13;;;9.68;100.00
42111;BME280;27766;52.174;5.456;2023-02-18T00:43:29;102031.91;;;9.71;100.00
42111;BME280;27766;52.174;5.456;2023-02-18T00:45:56;102021.13;;;9.60;100.00
42111;BME280;27766;52.174;5.456;2023-02-18T00:48:23;102028.94;;;9.62;100.00
42111;BME280;27766;52.174;5.456;2023-02-18T00:50:51;102018.47;;;9.59;100.00
42111;BME280;27766;52.174;5.456;2023-02-18T00:53:18;102010.41;;;9.51;100.00
42111;BME280;27766;52.174;5.456;2023-02-18T00:55:45;102010.47;;;9.53;100.00
42111;BME280;27766;52.174;5.456;2023-02-18T00:58:15;102003.34;;;9.47;100.00
42111;BME280;27766;52.174;5.456;2023-02-18T01:00:42;102006.00;;;9.48;100.00
42111;BME280;27766;52.174;5.456;2023-02-18T01:03:10;102005.13;;;9.48;100.00
42111;BME280;27766;52.174;5.456;2023-02-18T01:05:38;102004.13;;;9.44;100.00
42111;BME280;27766;52.174;5.456;2023-02-18T01:08:07;101997.78;;;9.38;100.00
42111;BME280;27766;52.174;5.456;2023-02-18T01:10:36;101998.69;;;9.38;100.00
42111;BME280;27766;52.174;5.456;2023-02-18T01:13:06;102002.19;;;9.40;100.00
42111;BME280;27766;52.174;5.456;2023-02-18T01:15:33;102001.09;;;9.33;100.00
42111;BME280;27766;52.174;5.456;2023-02-18T01:18:00;102003.22;;;9.23;100.00
42111;BME280;27766;52.174;5.456;2023-02-18T01:20:27;101999.19;;;9.29;100.00
42111;BME280;27766;52.174;5.456;2023-02-18T01:22:55;101992.44;;;9.33;100.00
42111;BME280;27766;52.174;5.456;2023-02-18T01:25:22;101991.50;;;9.31;100.00
42111;BME280;27766;52.174;5.456;2023-02-18T01:27:50;101989.47;;;9.24;100.00
42111;BME280;27766;52.174;5.456;2023-02-18T01:30:18;102000.56;;;9.21;100.00
42111;BME280;27766;52.174;5.456;2023-02-18T01:32:45;101992.88;;;9.23;100.00
42111;BME280;27766;52.174;5.456;2023-02-18T01:35:15;101998.53;;;9.14;100.00
42111;BME280;27766;52.174;5.456;2023-02-18T01:37:42;101994.69;;;9.04;100.00
42111;BME280;27766;52.174;5.456;2023-02-18T01:40:12;101989.09;;;9.14;100.00
42111;BME280;27766;52.174;5.456;2023-02-18T01:42:39;101978.16;;;9.00;100.00
42111;BME280;27766;52.174;5.456;2023-02-18T01:51:04;101980.69;;;8.99;100.00
42111;BME280;27766;52.174;5.456;2023-02-18T01:56:47;101959.13;;;8.98;100.00
42111;BME280;27766;52.174;5.456;2023-02-18T01:59:25;101964.00;;;8.91;100.00
42111;BME280;27766;52.174;5.456;2023-02-18T02:01:54;101959.75;;;8.93;100.00
42111;BME280;27766;52.174;5.456;2023-02-18T02:04:22;101971.03;;;8.95;100.00
42111;BME280;27766;52.174;5.456;2023-02-18T02:06:51;101969.22;;;8.92;100.00
42111;BME280;27766;52.174;5.456;2023-02-18T02:09:19;101960.44;;;8.89;100.00
42111;BME280;27766;52.174;5.456;2023-02-18T02:31:48;101896.72;;;8.87;100.00
42111;BME280;27766;52.174;5.456;2023-02-18T02:34:47;101889.94;;;8.90;100.00
42111;BME280;27766;52.174;5.456;2023-02-18T02:40:23;101871.97;;;8.93;100.00
42111;BME280;27766;52.174;5.456;2023-02-18T02:45:43;101844.75;;;9.01;100.00
42111;BME280;27766;52.174;5.456;2023-02-18T02:51:25;101827.91;;;8.88;100.00
42111;BME280;27766;52.174;5.456;2023-02-18T02:53:54;101829.84;;;8.94;100.00
42111;BME280;27766;52.174;5.456;2023-02-18T02:56:34;101820.59;;;8.99;100.00
42111;BME280;27766;52.174;5.456;2023-02-18T02:59:05;101799.31;;;8.83;100.00
42111;BME280;27766;52.174;5.456;2023-02-18T03:01:51;101815.28;;;8.96;100.00
42111;BME280;27766;52.174;5.456;2023-02-18T03:04:49;101808.44;;;8.96;100.00
42111;BME280;27766;52.174;5.456;2023-02-18T03:08:04;101806.16;;;9.04;100.00
42111;BME280;27766;52.174;5.456;2023-02-18T03:13:36;101798.34;;;9.02;100.00
42111;BME280;27766;52.174;5.456;2023-02-18T03:16:22;101802.84;;;9.08;100.00
42111;BME280;27766;52.174;5.456;2023-02-18T03:24:38;101772.47;;;9.24;100.00
42111;BME280;27766;52.174;5.456;2023-02-18T03:27:29;101778.53;;;9.24;100.00
42111;BME280;27766;52.174;5.456;2023-02-18T03:30:06;101766.75;;;9.31;100.00
42111;BME280;27766;52.174;5.456;2023-02-18T03:32:36;101752.91;;;9.30;100.00
42111;BME280;27766;52.174;5.456;2023-02-18T03:35:08;101766.47;;;9.47;100.00
42111;BME280;27766;52.174;5.456;2023-02-18T03:37:41;101746.56;;;9.45;100.00
42111;BME280;27766;52.174;5.456;2023-02-18T03:40:09;101743.28;;;9.49;100.00
42111;BME280;27766;52.174;5.456;2023-02-18T03:42:37;101744.38;;;9.56;100.00
42111;BME280;27766;52.174;5.456;2023-02-18T03:45:04;101739.19;;;9.56;100.00
42111;BME280;27766;52.174;5.456;2023-02-18T03:47:31;101725.13;;;9.47;100.00
42111;BME280;27766;52.174;5.456;2023-02-18T03:49:59;101731.41;;;9.54;100.00
42111;BME280;27766;52.174;5.456;2023-02-18T03:52:26;101735.03;;;9.59;100.00
42111;BME280;27766;52.174;5.456;2023-02-18T03:54:53;101726.41;;;9.59;100.00
42111;BME280;27766;52.174;5.456;2023-02-18T03:57:20;101720.19;;;9.54;100.00
42111;BME280;27766;52.174;5.456;2023-02-18T03:59:48;101717.53;;;9.52;100.00
42111;BME280;27766;52.174;5.456;2023-02-18T04:02:15;101709.75;;;9.50;100.00
42111;BME280;27766;52.174;5.456;2023-02-18T04:04:42;101708.19;;;9.56;100.00
42111;BME280;27766;52.174;5.456;2023-02-18T04:07:09;101705.00;;;9.63;100.00
42111;BME280;27766;52.174;5.456;2023-02-18T04:09:36;101710.34;;;9.68;100.00
42111;BME280;27766;52.174;5.456;2023-02-18T04:12:03;101691.78;;;9.54;100.00
42111;BME280;27766;52.174;5.456;2023-02-18T04:14:30;101709.19;;;9.59;100.00
42111;BME280;27766;52.174;5.456;2023-02-18T04:16:57;101688.66;;;9.64;100.00
42111;BME280;27766;52.174;5.456;2023-02-18T04:19:24;101683.41;;;9.61;100.00
42111;BME280;27766;52.174;5.456;2023-02-18T04:21:51;101679.16;;;9.63;100.00
42111;BME280;27766;52.174;5.456;2023-02-18T04:24:19;101672.22;;;9.62;100.00
42111;BME280;27766;52.174;5.456;2023-02-18T04:26:46;101667.50;;;9.74;100.00
42111;BME280;27766;52.174;5.456;2023-02-18T04:29:13;101673.81;;;9.82;100.00
42111;BME280;27766;52.174;5.456;2023-02-18T04:31:40;101673.75;;;9.81;100.00
42111;BME280;27766;52.174;5.456;2023-02-18T04:34:07;101668.09;;;9.93;100.00
42111;BME280;27766;52.174;5.456;2023-02-18T04:36:34;101654.31;;;9.92;100.00
42111;BME280;27766;52.174;5.456;2023-02-18T04:39:02;101657.16;;;9.74;100.00
42111;BME280;27766;52.174;5.456;2023-02-18T04:41:29;101663.63;;;9.87;100.00
42111;BME280;27766;52.174;5.456;2023-02-18T04:43:56;101669.78;;;9.91;100.00
42111;BME280;27766;52.174;5.456;2023-02-18T04:46:25;101653.38;;;9.90;100.00
42111;BME280;27766;52.174;5.456;2023-02-18T04:48:52;101639.63;;;9.91;100.00
42111;BME280;27766;52.174;5.456;2023-02-18T04:51:19;101653.44;;;9.92;100.00
42111;BME280;27766;52.174;5.456;2023-02-18T04:53:47;101640.72;;;9.98;100.00
42111;BME280;27766;52.174;5.456;2023-02-18T04:56:14;101636.94;;;9.88;100.00
42111;BME280;27766;52.174;5.456;2023-02-18T04:58:41;101622.34;;;9.90;100.00
42111;BME280;27766;52.174;5.456;2023-02-18T05:01:09;101631.69;;;9.87;100.00
42111;BME280;27766;52.174;5.456;2023-02-18T05:03:36;101630.72;;;9.83;100.00
42111;BME280;27766;52.174;5.456;2023-02-18T05:06:03;101617.94;;;9.88;100.00
42111;BME280;27766;52.174;5.456;2023-02-18T05:08:30;101632.59;;;9.87;100.00
42111;BME280;27766;52.174;5.456;2023-02-18T05:10:58;101636.50;;;9.76;100.00
42111;BME280;27766;52.174;5.456;2023-02-18T05:13:25;101621.75;;;9.72;100.00
42111;BME280;27766;52.174;5.456;2023-02-18T05:15:52;101621.94;;;9.78;100.00
42111;BME280;27766;52.174;5.456;2023-02-18T05:18:20;101629.84;;;9.82;100.00
42111;BME280;27766;52.174;5.456;2023-02-18T05:20:47;101624.56;;;9.79;100.00
42111;BME280;27766;52.174;5.456;2023-02-18T05:23:14;101623.53;;;9.74;100.00
42111;BME280;27766;52.174;5.456;2023-02-18T05:25:42;101617.47;;;9.74;100.00
42111;BME280;27766;52.174;5.456;2023-02-18T05:28:09;101622.81;;;9.78;100.00
42111;BME280;27766;52.174;5.456;2023-02-18T05:30:36;101607.22;;;9.75;100.00
42111;BME280;27766;52.174;5.456;2023-02-18T05:33:03;101611.56;;;9.76;100.00
42111;BME280;27766;52.174;5.456;2023-02-18T05:35:30;101593.31;;;9.72;100.00
42111;BME280;27766;52.174;5.456;2023-02-18T05:37:57;101596.91;;;9.77;100.00
42111;BME280;27766;52.174;5.456;2023-02-18T05:40:27;101582.50;;;9.84;100.00
42111;BME280;27766;52.174;5.456;2023-02-18T05:42:57;101593.41;;;10.02;100.00
42111;BME280;27766;52.174;5.456;2023-02-18T05:45:24;101578.72;;;10.01;100.00
42111;BME280;27766;52.174;5.456;2023-02-18T05:47:52;101578.81;;;10.03;100.00
42111;BME280;27766;52.174;5.456;2023-02-18T05:50:20;101569.91;;;9.94;100.00
42111;BME280;27766;52.174;5.456;2023-02-18T05:52:47;101584.44;;;9.91;100.00
42111;BME280;27766;52.174;5.456;2023-02-18T05:55:15;101578.81;;;10.03;100.00
42111;BME280;27766;52.174;5.456;2023-02-18T05:57:42;101584.84;;;10.03;100.00
42111;BME280;27766;52.174;5.456;2023-02-18T06:00:09;101582.28;;;10.05;100.00
42111;BME280;27766;52.174;5.456;2023-02-18T06:02:36;101571.03;;;10.03;100.00
42111;BME280;27766;52.174;5.456;2023-02-18T06:05:04;101564.03;;;10.00;100.00
42111;BME280;27766;52.174;5.456;2023-02-18T06:07:31;101580.75;;;10.10;100.00
42111;BME280;27766;52.174;5.456;2023-02-18T06:09:58;101583.53;;;10.16;100.00
42111;BME280;27766;52.174;5.456;2023-02-18T06:12:26;101580.78;;;10.11;100.00
42111;BME280;27766;52.174;5.456;2023-02-18T06:14:53;101591.38;;;10.19;100.00
42111;BME280;27766;52.174;5.456;2023-02-18T06:17:22;101592.41;;;10.24;100.00
42111;BME280;27766;52.174;5.456;2023-02-18T06:19:51;101592.38;;;10.23;100.00
42111;BME280;27766;52.174;5.456;2023-02-18T06:22:18;101577.25;;;10.09;100.00
42111;BME280;27766;52.174;5.456;2023-02-18T06:24:46;101583.59;;;10.19;100.00
42111;BME280;27766;52.174;5.456;2023-02-18T06:27:13;101596.59;;;10.21;100.00
42111;BME280;27766;52.174;5.456;2023-02-18T06:29:40;101584.50;;;10.20;100.00
42111;BME280;27766;52.174;5.456;2023-02-18T06:32:07;101588.22;;;10.28;100.00
42111;BME280;27766;52.174;5.456;2023-02-18T06:34:34;101581.44;;;10.33;100.00
42111;BME280;27766;52.174;5.456;2023-02-18T06:37:01;101587.41;;;10.30;100.00
42111;BME280;27766;52.174;5.456;2023-02-18T06:39:28;101584.97;;;10.35;100.00
42111;BME280;27766;52.174;5.456;2023-02-18T06:41:55;101591.91;;;10.36;100.00
42111;BME280;27766;52.174;5.456;2023-02-18T06:44:22;101602.09;;;10.30;100.00
42111;BME280;27766;52.174;5.456;2023-02-18T06:46:50;101601.34;;;10.34;100.00
42111;BME280;27766;52.174;5.456;2023-02-18T06:49:17;101594.34;;;10.32;100.00
42111;BME280;27766;52.174;5.456;2023-02-18T06:51:44;101600.75;;;10.43;100.00
42111;BME280;27766;52.174;5.456;2023-02-18T06:54:11;101600.25;;;10.27;100.00
42111;BME280;27766;52.174;5.456;2023-02-18T06:56:39;101603.31;;;10.41;100.00
42111;BME280;27766;52.174;5.456;2023-02-18T06:59:06;101596.44;;;10.42;100.00
42111;BME280;27766;52.174;5.456;2023-02-18T07:01:34;101590.25;;;10.38;100.00
42111;BME280;27766;52.174;5.456;2023-02-18T07:04:01;101583.34;;;10.37;100.00
42111;BME280;27766;52.174;5.456;2023-02-18T07:06:28;101589.84;;;10.26;100.00
42111;BME280;27766;52.174;5.456;2023-02-18T07:08:56;101581.50;;;10.35;100.00
42111;BME280;27766;52.174;5.456;2023-02-18T07:11:23;101575.34;;;10.31;100.00
42111;BME280;27766;52.174;5.456;2023-02-18T07:13:52;101578.88;;;10.33;100.00
42111;BME280;27766;52.174;5.456;2023-02-18T07:16:21;101584.63;;;10.23;100.00
42111;BME280;27766;52.174;5.456;2023-02-18T07:18:48;101573.97;;;10.13;100.00
42111;BME280;27766;52.174;5.456;2023-02-18T07:21:15;101583.41;;;10.13;100.00
42111;BME280;27766;52.174;5.456;2023-02-18T07:23:42;101602.41;;;10.13;100.00
42111;BME280;27766;52.174;5.456;2023-02-18T07:26:11;101589.47;;;10.13;100.00
42111;BME280;27766;52.174;5.456;2023-02-18T07:28:39;101577.66;;;10.22;100.00
42111;BME280;27766;52.174;5.456;2023-02-18T07:31:07;101573.78;;;10.07;100.00
42111;BME280;27766;52.174;5.456;2023-02-18T07:33:34;101569.50;;;10.09;100.00
42111;BME280;27766;52.174;5.456;2023-02-18T07:36:01;101569.50;;;10.09;100.00
42111;BME280;27766;52.174;5.456;2023-02-18T07:38:29;101566.72;;;10.03;100.00
42111;BME280;27766;52.174;5.456;2023-02-18T07:40:57;101567.03;;;10.12;100.00
42111;BME280;27766;52.174;5.456;2023-02-18T07:43:25;101558.63;;;10.20;100.00
42111;BME280;27766;52.174;5.456;2023-02-18T07:45:52;101569.09;;;10.23;100.00
42111;BME280;27766;52.174;5.456;2023-02-18T07:48:19;101557.88;;;10.24;100.00
42111;BME280;27766;52.174;5.456;2023-02-18T07:50:46;101580.78;;;10.11;100.00
42111;BME280;27766;52.174;5.456;2023-02-18T07:53:15;101571.91;;;10.03;100.00
42111;BME280;27766;52.174;5.456;2023-02-18T07:55:42;101576.47;;;10.12;100.00
42111;BME280;27766;52.174;5.456;2023-02-18T07:58:23;101571.69;;;10.23;100.00
42111;BME280;27766;52.174;5.456;2023-02-18T08:00:55;101578.38;;;10.18;100.00
42111;BME280;27766;52.174;5.456;2023-02-18T08:03:26;101589.22;;;10.06;100.00
42111;BME280;27766;52.174;5.456;2023-02-18T08:05:55;101576.94;;;9.98;100.00
42111;BME280;27766;52.174;5.456;2023-02-18T08:08:26;101586.94;;;9.88;100.00
42111;BME280;27766;52.174;5.456;2023-02-18T08:10:56;101593.84;;;9.89;100.00
42111;BME280;27766;52.174;5.456;2023-02-18T08:13:27;101605.97;;;9.90;100.00
42111;BME280;27766;52.174;5.456;2023-02-18T08:15:56;101581.75;;;9.88;100.00
42111;BME280;27766;52.174;5.456;2023-02-18T08:18:25;101592.47;;;10.00;100.00
42111;BME280;27766;52.174;5.456;2023-02-18T08:20:52;101594.16;;;9.98;100.00
42111;BME280;27766;52.174;5.456;2023-02-18T08:23:22;101593.19;;;9.94;100.00
42111;BME280;27766;52.174;5.456;2023-02-18T08:25:52;101600.19;;;9.98;100.00
42111;BME280;27766;52.174;5.456;2023-02-18T08:28:22;101612.78;;;9.88;100.00
42111;BME280;27766;52.174;5.456;2023-02-18T08:30:52;101608.84;;;9.99;100.00
42111;BME280;27766;52.174;5.456;2023-02-18T08:33:22;101601.56;;;9.87;100.00
42111;BME280;27766;52.174;5.456;2023-02-18T08:35:52;101615.63;;;9.70;100.00
42111;BME280;27766;52.174;5.456;2023-02-18T08:38:22;101622.00;;;9.54;100.00
42111;BME280;27766;52.174;5.456;2023-02-18T08:41:00;101624.94;;;9.64;100.00
42111;BME280;27766;52.174;5.456;2023-02-18T08:43:28;101635.94;;;9.59;100.00
42111;BME280;27766;52.174;5.456;2023-02-18T08:45:56;101621.25;;;9.58;100.00
42111;BME280;27766;52.174;5.456;2023-02-18T08:48:25;101611.13;;;9.64;100.00
42111;BME280;27766;52.174;5.456;2023-02-18T08:50:52;101598.00;;;9.58;100.00
42111;BME280;27766;52.174;5.456;2023-02-18T08:53:21;101604.00;;;9.57;100.00
42111;BME280;27766;52.174;5.456;2023-02-18T08:55:48;101600.16;;;9.45;100.00
42111;BME280;27766;52.174;5.456;2023-02-18T08:58:15;101612.47;;;9.53;100.00
42111;BME280;27766;52.174;5.456;2023-02-18T09:00:44;101616.53;;;9.46;100.00
42111;BME280;27766;52.174;5.456;2023-02-18T09:03:14;101622.09;;;9.57;100.00
42111;BME280;27766;52.174;5.456;2023-02-18T09:05:41;101623.97;;;9.61;100.00
42111;BME280;27766;52.174;5.456;2023-02-18T09:08:09;101618.78;;;9.61;100.00
42111;BME280;27766;52.174;5.456;2023-02-18T09:10:36;101628.16;;;9.57;100.00
42111;BME280;27766;52.174;5.456;2023-02-18T09:13:05;101627.41;;;9.61;100.00
42111;BME280;27766;52.174;5.456;2023-02-18T09:15:32;101632.53;;;9.60;100.00
42111;BME280;27766;52.174;5.456;2023-02-18T09:17:59;101618.19;;;9.68;100.00
42111;BME280;27766;52.174;5.456;2023-02-18T09:20:27;101636.47;;;9.74;100.00
42111;BME280;27766;52.174;5.456;2023-02-18T09:22:55;101621.03;;;9.77;100.00
42111;BME280;27766;52.174;5.456;2023-02-18T09:25:25;101610.63;;;9.74;100.00
42111;BME280;27766;52.174;5.456;2023-02-18T09:27:52;101624.38;;;9.73;100.00
42111;BME280;27766;52.174;5.456;2023-02-18T09:30:22;101629.78;;;9.81;100.00
42111;BME280;27766;52.174;5.456;2023-02-18T09:32:51;101631.63;;;9.84;100.00
42111;BME280;27766;52.174;5.456;2023-02-18T09:35:18;101637.63;;;9.82;100.00
42111;BME280;27766;52.174;5.456;2023-02-18T09:37:46;101630.09;;;9.90;100.00
42111;BME280;27766;52.174;5.456;2023-02-18T09:40:29;101635.91;;;9.83;100.00
42111;BME280;27766;52.174;5.456;2023-02-18T09:42:59;101619.44;;;9.81;100.00
42111;BME280;27766;52.174;5.456;2023-02-18T09:45:26;101647.69;;;10.01;100.00
42111;BME280;27766;52.174;5.456;2023-02-18T09:47:54;101650.78;;;9.90;100.00
42111;BME280;27766;52.174;5.456;2023-02-18T09:50:26;101634.56;;;9.94;100.00
42111;BME280;27766;52.174;5.456;2023-02-18T09:52:57;101650.91;;;9.93;100.00
42111;BME280;27766;52.174;5.456;2023-02-18T09:55:38;101651.47;;;10.10;100.00
42111;BME280;27766;52.174;5.456;2023-02-18T09:58:18;101654.03;;;10.10;100.00
42111;BME280;27766;52.174;5.456;2023-02-18T10:03:25;101655.84;;;10.13;100.00
42111;BME280;27766;52.174;5.456;2023-02-18T10:06:00;101659.34;;;10.13;100.00
42111;BME280;27766;52.174;5.456;2023-02-18T10:08:37;101669.91;;;10.21;100.00
42111;BME280;27766;52.174;5.456;2023-02-18T10:11:11;101669.41;;;10.32;100.00
42111;BME280;27766;52.174;5.456;2023-02-18T10:13:43;101661.84;;;10.38;100.00
42111;BME280;27766;52.174;5.456;2023-02-18T10:16:15;101682.75;;;10.44;100.00
42111;BME280;27766;52.174;5.456;2023-02-18T10:18:45;101654.91;;;10.37;100.00
42111;BME280;27766;52.174;5.456;2023-02-18T10:21:29;101658.47;;;10.40;100.00
42111;BME280;27766;52.174;5.456;2023-02-18T10:24:04;101671.53;;;10.43;100.00
42111;BME280;27766;52.174;5.456;2023-02-18T10:26:34;101668.97;;;10.45;100.00
42111;BME280;27766;52.174;5.456;2023-02-18T10:29:09;101686.25;;;10.44;100.00
42111;BME280;27766;52.174;5.456;2023-02-18T10:31:53;101669.25;;;10.53;100.00
42111;BME280;27766;52.174;5.456;2023-02-18T10:37:04;101658.31;;;10.63;100.00
42111;BME280;27766;52.174;5.456;2023-02-18T10:45:40;101680.31;;;10.76;100.00
42111;BME280;27766;52.174;5.456;2023-02-18T10:50:52;101685.47;;;10.76;100.00
42111;BME280;27766;52.174;5.456;2023-02-18T10:53:38;101692.56;;;10.82;100.00
42111;BME280;27766;52.174;5.456;2023-02-18T10:56:07;101684.16;;;10.89;100.00
42111;BME280;27766;52.174;5.456;2023-02-18T10:58:35;101697.13;;;10.90;100.00
42111;BME280;27766;52.174;5.456;2023-02-18T11:01:05;101670.72;;;11.02;100.00
42111;BME280;27766;52.174;5.456;2023-02-18T11:03:39;101682.53;;;11.23;100.00
42111;BME280;27766;52.174;5.456;2023-02-18T11:06:20;101680.81;;;11.22;100.00
42111;BME280;27766;52.174;5.456;2023-02-18T11:08:48;101689.22;;;11.15;100.00
42111;BME280;27766;52.174;5.456;2023-02-18T11:11:29;101686.16;;;11.28;100.00
42111;BME280;27766;52.174;5.456;2023-02-18T11:13:59;101679.53;;;11.39;100.00
42111;BME280;27766;52.174;5.456;2023-02-18T11:16:39;101678.41;;;11.30;100.00
42111;BME280;27766;52.174;5.456;2023-02-18T11:19:33;101686.50;;;11.40;100.00
42111;BME280;27766;52.174;5.456;2023-02-18T11:22:15;101681.19;;;11.36;100.00
42111;BME280;27766;52.174;5.456;2023-02-18T11:24:45;101696.06;;;11.43;100.00
42111;BME280;27766;52.174;5.456;2023-02-18T11:27:34;101701.69;;;11.28;100.00
42111;BME280;27766;52.174;5.456;2023-02-18T11:30:15;101677.09;;;11.44;100.00
42111;BME280;27766;52.174;5.456;2023-02-18T11:32:44;101687.84;;;11.28;100.00
42111;BME280;27766;52.174;5.456;2023-02-18T11:35:23;101691.25;;;11.25;100.00
42111;BME280;27766;52.174;5.456;2023-02-18T11:37:52;101695.25;;;11.46;100.00
42111;BME280;27766;52.174;5.456;2023-02-18T11:40:32;101688.44;;;11.17;100.00
42111;BME280;27766;52.174;5.456;2023-02-18T11:43:11;101700.63;;;10.91;100.00
42111;BME280;27766;52.174;5.456;2023-02-18T11:45:39;101690.47;;;10.70;100.00
42111;BME280;27766;52.174;5.456;2023-02-18T11:48:15;101682.69;;;10.70;100.00
42111;BME280;27766;52.174;5.456;2023-02-18T11:50:43;101682.75;;;10.71;100.00
42111;BME280;27766;52.174;5.456;2023-02-18T11:55:59;101683.81;;;10.78;100.00
42111;BME280;27766;52.174;5.456;2023-02-18T11:58:35;101684.69;;;10.79;100.00
42111;BME280;27766;52.174;5.456;2023-02-18T12:01:05;101691.91;;;10.89;100.00
42111;BME280;27766;52.174;5.456;2023-02-18T12:03:43;101693.03;;;10.97;100.00
42111;BME280;27766;52.174;5.456;2023-02-18T12:09:00;101695.31;;;11.17;100.00
42111;BME280;27766;52.174;5.456;2023-02-18T12:11:33;101686.69;;;11.16;100.00
42111;BME280;27766;52.174;5.456;2023-02-18T12:14:02;101687.72;;;11.23;100.00
42111;BME280;27766;52.174;5.456;2023-02-18T12:22:27;101687.06;;;11.30;100.00
42111;BME280;27766;52.174;5.456;2023-02-18T12:25:21;101685.53;;;11.37;100.00
42111;BME280;27766;52.174;5.456;2023-02-18T12:27:56;101671.91;;;11.44;100.00
42111;BME280;27766;52.174;5.456;2023-02-18T12:36:09;101685.69;;;11.43;100.00
42111;BME280;27766;52.174;5.456;2023-02-18T12:39:02;101682.63;;;11.56;100.00
42111;BME280;27766;52.174;5.456;2023-02-18T12:55:38;101689.63;;;11.61;100.00
42111;BME280;27766;52.174;5.456;2023-02-18T12:58:31;101692.63;;;11.75;100.00
42111;BME280;27766;52.174;5.456;2023-02-18T13:06:50;101699.34;;;12.00;100.00
42111;BME280;27766;52.174;5.456;2023-02-18T13:15:18;101700.84;;;11.92;100.00
42111;BME280;27766;52.174;5.456;2023-02-18T13:17:48;101708.41;;;11.84;100.00
42111;BME280;27766;52.174;5.456;2023-02-18T13:23:15;101713.50;;;11.79;100.00
42111;BME280;27766;52.174;5.456;2023-02-18T13:25:44;101722.59;;;11.65;100.00
42111;BME280;27766;52.174;5.456;2023-02-18T13:31:31;101700.28;;;11.70;100.00
42111;BME280;27766;52.174;5.456;2023-02-18T13:34:23;101700.41;;;11.75;100.00
42111;BME280;27766;52.174;5.456;2023-02-18T13:37:02;101694.44;;;11.79;100.00
42111;BME280;27766;52.174;5.456;2023-02-18T13:39:30;101700.41;;;11.75;100.00
42111;BME280;27766;52.174;5.456;2023-02-18T13:47:41;101706.31;;;11.70;100.00
42111;BME280;27766;52.174;5.456;2023-02-18T13:50:27;101727.03;;;11.69;100.00
42111;BME280;27766;52.174;5.456;2023-02-18T13:53:19;101720.38;;;11.79;100.00
42111;BME280;27766;52.174;5.456;2023-02-18T13:55:54;101704.91;;;11.82;100.00
42111;BME280;27766;52.174;5.456;2023-02-18T14:06:24;101726.16;;;12.00;100.00
42111;BME280;27766;52.174;5.456;2023-02-18T14:09:48;101717.41;;;11.97;100.00
42111;BME280;27766;52.174;5.456;2023-02-18T14:12:23;101721.16;;;12.07;100.00
42111;BME280;27766;52.174;5.456;2023-02-18T14:14:52;101722.84;;;12.06;100.00
42111;BME280;27766;52.174;5.456;2023-02-18T14:24:59;101710.41;;;11.94;100.00
42111;BME280;27766;52.174;5.456;2023-02-18T14:27:28;101723.69;;;12.05;100.00
42111;BME280;27766;52.174;5.456;2023-02-18T14:30:02;101720.75;;;11.93;100.00
42111;BME280;27766;52.174;5.456;2023-02-18T14:32:30;101722.34;;;11.87;100.00
42111;BME280;27766;52.174;5.456;2023-02-18T14:35:22;101727.59;;;11.89;100.00
42111;BME280;27766;52.174;5.456;2023-02-18T14:41:02;101725.34;;;12.01;100.00
42111;BME280;27766;52.174;5.456;2023-02-18T14:49:30;101725.13;;;11.94;100.00
42111;BME280;27766;52.174;5.456;2023-02-18T14:52:03;101733.06;;;11.98;100.00
42111;BME280;27766;52.174;5.456;2023-02-18T14:54:31;101729.66;;;12.01;100.00
42111;BME280;27766;52.174;5.456;2023-02-18T14:57:00;101716.63;;;11.99;100.00
42111;BME280;27766;52.174;5.456;2023-02-18T14:59:34;101721.72;;;11.96;100.00
42111;BME280;27766;52.174;5.456;2023-02-18T15:02:02;101723.53;;;11.99;100.00
42111;BME280;27766;52.174;5.456;2023-02-18T15:04:29;101725.22;;;11.97;100.00
42111;BME280;27766;52.174;5.456;2023-02-18T15:07:04;101735.41;;;11.91;100.00
42111;BME280;27766;52.174;5.456;2023-02-18T15:09:31;101731.84;;;11.87;100.00
42111;BME280;27766;52.174;5.456;2023-02-18T15:12:03;101727.59;;;11.91;100.00
42111;BME280;27766;52.174;5.456;2023-02-18T15:14:37;101735.59;;;11.97;100.00
42111;BME280;27766;52.174;5.456;2023-02-18T15:17:10;101719.81;;;11.91;100.00
42111;BME280;27766;52.174;5.456;2023-02-18T15:19:42;101729.25;;;11.87;100.00
42111;BME280;27766;52.174;5.456;2023-02-18T15:22:17;101737.16;;;11.92;100.00
42111;BME280;27766;52.174;5.456;2023-02-18T15:24:44;101737.00;;;11.85;100.00